createdAt,value
2018-06-03T00:02:10.910Z,147898.20
2018-06-03T00:04:41.645Z,147903.17
2018-06-03T00:07:12.494Z,147884.55
2018-06-03T00:09:45.001Z,147855.94
2018-06-03T00:12:16.028Z,147841.03
2018-06-03T00:14:46.882Z,147843.52
2018-06-03T00:17:17.494Z,147833.58
2018-06-03T00:19:49.091Z,147832.34
2018-06-03T00:22:24.814Z,147826.08
2018-06-03T00:24:56.247Z,147821.11
2018-06-03T00:27:27.482Z,147821.11
2018-06-03T00:29:58.386Z,147811.19
2018-06-03T00:32:29.361Z,147807.45
2018-06-03T00:37:37.897Z,147798.72
2018-06-03T00:40:09.735Z,147792.50
2018-06-03T00:42:40.649Z,147788.78
2018-06-03T00:45:11.690Z,147776.31
2018-06-03T00:47:43.747Z,147773.84
2018-06-03T00:50:17.379Z,147770.11
2018-06-03T00:52:48.225Z,147767.62
2018-06-03T00:55:19.925Z,147755.22
2018-06-03T00:57:52.049Z,147747.77
2018-06-03T01:00:23.070Z,147752.73
2018-06-03T01:02:54.328Z,147751.48
2018-06-03T01:05:25.391Z,147756.45
2018-06-03T01:07:56.470Z,147752.73
2018-06-03T01:10:28.260Z,147758.94
2018-06-03T01:12:59.345Z,147762.66
2018-06-03T01:15:30.612Z,147765.14
2018-06-03T01:18:01.610Z,147766.39
2018-06-03T01:20:32.519Z,147758.94
2018-06-03T01:23:03.636Z,147752.73
2018-06-03T01:25:35.577Z,147753.97
2018-06-03T01:28:06.630Z,147753.97
2018-06-03T01:30:37.845Z,147744.05
2018-06-03T01:33:08.852Z,147752.73
2018-06-03T01:35:40.413Z,147742.80
2018-06-03T01:38:11.445Z,147726.61
2018-06-03T01:40:43.097Z,147722.89
2018-06-03T01:43:14.204Z,147724.14
2018-06-03T01:45:46.213Z,147719.17
2018-06-03T01:48:17.199Z,147721.66
2018-06-03T01:50:48.257Z,147722.89
2018-06-03T01:53:19.311Z,147721.66
2018-06-03T01:55:50.370Z,147717.92
2018-06-03T01:58:22.620Z,147715.44
2018-06-03T02:00:59.609Z,147715.44
2018-06-03T02:03:30.429Z,147711.72
2018-06-03T02:06:01.447Z,147726.61
2018-06-03T02:08:32.423Z,147721.66
2018-06-03T02:11:03.440Z,147708.00
2018-06-03T02:13:34.326Z,147708.00
2018-06-03T02:16:07.091Z,147706.75
2018-06-03T02:18:38.184Z,147709.23
2018-06-03T02:21:09.115Z,147719.17
2018-06-03T02:23:40.365Z,147730.34
2018-06-03T02:26:11.304Z,147725.37
2018-06-03T02:28:42.409Z,147736.59
2018-06-03T02:31:13.500Z,147735.36
2018-06-03T02:33:44.491Z,147736.59
2018-06-03T02:36:15.488Z,147731.58
2018-06-03T02:38:46.290Z,147740.31
2018-06-03T02:41:18.572Z,147742.80
2018-06-03T02:43:50.606Z,147751.48
2018-06-03T02:46:21.489Z,147749.00
2018-06-03T02:48:52.738Z,147758.94
2018-06-03T02:51:25.540Z,147771.36
2018-06-03T02:53:56.508Z,147770.11
2018-06-03T02:56:27.453Z,147796.23
2018-06-03T02:58:58.459Z,147811.19
2018-06-03T03:01:29.626Z,147853.45
2018-06-03T03:04:02.694Z,147905.66
2018-06-03T03:06:36.100Z,148016.31
2018-06-03T03:09:07.651Z,148214.20
2018-06-03T03:11:38.985Z,148442.06
2018-06-03T03:14:10.084Z,148673.75
2018-06-03T03:16:42.112Z,148896.94
2018-06-03T03:19:13.069Z,149125.30
2018-06-03T03:21:44.219Z,149361.23
2018-06-03T03:24:15.907Z,149541.11
2018-06-03T03:26:46.860Z,149723.58
2018-06-03T03:29:17.776Z,149844.84
2018-06-03T03:31:49.572Z,149944.86
2018-06-03T03:34:20.561Z,150096.23
2018-06-03T03:36:52.481Z,150191.38
2018-06-03T03:39:23.524Z,150309.03
2018-06-03T03:41:54.630Z,150414.22
2018-06-03T03:44:25.785Z,150504.42
2018-06-03T03:49:32.736Z,150757.48
2018-06-03T03:52:03.899Z,150912.97
2018-06-03T03:54:34.887Z,151014.56
2018-06-03T03:57:05.900Z,151069.73
2018-06-03T03:59:37.893Z,151062.22
2018-06-03T04:02:08.884Z,151236.63
2018-06-03T04:04:41.920Z,151422.38
2018-06-03T04:07:13.044Z,151478.91
2018-06-03T04:09:45.903Z,151542.95
2018-06-03T04:12:16.842Z,151579.37
2018-06-03T04:14:47.860Z,151650.97
2018-06-03T04:17:18.907Z,151814.31
2018-06-03T04:22:26.099Z,151865.81
2018-06-03T04:24:56.958Z,151907.34
2018-06-03T04:30:04.394Z,152010.38
2018-06-03T04:32:35.503Z,152024.19
2018-06-03T04:35:06.856Z,152021.67
2018-06-03T04:37:38.154Z,152019.16
2018-06-03T04:40:09.474Z,152017.91
2018-06-03T04:42:43.599Z,152118.50
2018-06-03T04:45:17.945Z,151986.47
2018-06-03T04:47:49.179Z,152107.20
2018-06-03T04:50:20.893Z,152088.31
2018-06-03T04:52:56.591Z,151986.47
2018-06-03T04:55:27.567Z,152064.45
2018-06-03T04:58:00.442Z,152132.31
2018-06-03T05:00:34.194Z,152245.55
2018-06-03T05:03:05.493Z,152289.61
2018-06-03T05:05:39.698Z,152309.72
2018-06-03T05:08:10.933Z,152266.91
2018-06-03T05:10:42.748Z,152230.44
2018-06-03T05:13:14.101Z,152312.22
2018-06-03T05:15:44.926Z,152304.69
2018-06-03T05:18:15.691Z,152349.97
2018-06-03T05:20:46.281Z,152456.92
2018-06-03T05:23:17.750Z,152344.94
2018-06-03T05:28:24.749Z,152180.14
2018-06-03T05:30:55.372Z,152225.41
2018-06-03T05:33:25.984Z,152349.97
2018-06-03T05:35:56.580Z,152400.33
2018-06-03T05:38:27.583Z,152417.91
2018-06-03T05:40:58.016Z,152292.13
2018-06-03T05:43:30.011Z,152235.45
2018-06-03T05:46:00.470Z,152259.36
2018-06-03T05:48:32.733Z,152245.55
2018-06-03T05:51:03.622Z,152448.13
2018-06-03T05:53:34.016Z,152329.81
2018-06-03T05:56:04.456Z,152180.14
2018-06-03T05:58:34.989Z,152264.39
2018-06-03T06:01:05.567Z,152282.03
2018-06-03T06:03:36.841Z,152285.80
2018-06-03T06:06:09.880Z,152231.69
2018-06-03T06:08:41.120Z,152318.50
2018-06-03T06:11:11.571Z,152297.16
2018-06-03T06:13:42.028Z,152243.03
2018-06-03T06:16:12.540Z,152161.30
2018-06-03T06:18:43.279Z,152041.81
2018-06-03T06:21:14.619Z,152188.94
2018-06-03T06:23:46.243Z,152121.02
2018-06-03T06:26:19.720Z,152110.97
2018-06-03T06:28:50.185Z,152024.19
2018-06-03T06:31:20.714Z,152256.86
2018-06-03T06:33:51.255Z,152142.36
2018-06-03T06:36:22.387Z,152136.09
2018-06-03T06:38:53.358Z,152260.63
2018-06-03T06:41:26.900Z,152417.91
2018-06-03T06:43:57.671Z,152282.03
2018-06-03T06:46:28.803Z,152375.09
2018-06-03T06:48:59.266Z,152351.22
2018-06-03T06:51:29.871Z,152113.48
2018-06-03T06:54:00.414Z,152172.59
2018-06-03T06:56:30.965Z,152224.14
2018-06-03T06:59:01.477Z,152278.25
2018-06-03T07:01:32.744Z,152073.25
2018-06-03T07:04:04.519Z,152092.08
2018-06-03T07:06:37.423Z,152095.84
2018-06-03T07:09:08.953Z,152163.81
2018-06-03T07:11:39.352Z,152205.31
2018-06-03T07:14:09.871Z,152045.58
2018-06-03T07:16:40.326Z,152085.81
2018-06-03T07:19:10.777Z,151853.22
2018-06-03T07:21:41.367Z,151922.41
2018-06-03T07:24:11.904Z,151934.95
2018-06-03T07:26:43.556Z,151936.22
2018-06-03T07:29:14.067Z,151801.72
2018-06-03T07:31:44.562Z,151924.91
2018-06-03T07:34:15.821Z,151534.17
2018-06-03T07:36:46.313Z,151622.06
2018-06-03T07:39:19.365Z,151560.50
2018-06-03T07:41:51.040Z,151627.09
2018-06-03T07:44:23.332Z,151552.98
2018-06-03T07:47:00.414Z,151432.45
2018-06-03T07:49:30.881Z,151236.63
2018-06-03T07:52:02.367Z,151064.72
2018-06-03T07:54:32.917Z,151214.02
2018-06-03T07:57:03.866Z,150790.08
2018-06-03T07:59:34.688Z,151008.30
2018-06-03T08:02:07.522Z,150564.52
2018-06-03T08:04:38.229Z,150175.06
2018-06-03T08:07:11.091Z,150188.86
2018-06-03T08:09:42.879Z,150230.16
2018-06-03T08:12:15.339Z,150006.17
2018-06-03T08:14:52.550Z,149998.62
2018-06-03T08:17:25.702Z,149898.59
2018-06-03T08:19:56.466Z,149802.28
2018-06-03T08:22:27.300Z,149648.53
2018-06-03T08:24:58.845Z,149617.28
2018-06-03T08:27:30.791Z,149609.80
2018-06-03T08:30:01.535Z,149526.09
2018-06-03T08:32:32.501Z,149409.92
2018-06-03T08:35:05.502Z,149487.36
2018-06-03T08:37:37.418Z,149416.16
2018-06-03T08:40:09.538Z,149398.69
2018-06-03T08:42:40.871Z,149404.94
2018-06-03T08:45:11.339Z,149426.14
2018-06-03T08:47:43.744Z,149377.44
2018-06-03T08:50:16.838Z,149298.78
2018-06-03T08:52:47.889Z,149288.75
2018-06-03T08:55:18.332Z,149328.75
2018-06-03T08:57:49.005Z,149312.55
2018-06-03T09:00:19.613Z,149358.73
2018-06-03T09:02:51.065Z,149402.44
2018-06-03T09:05:21.602Z,149456.12
2018-06-03T09:07:52.925Z,149447.39
2018-06-03T09:10:23.418Z,149472.34
2018-06-03T09:12:55.265Z,149434.88
2018-06-03T09:15:26.028Z,149378.69
2018-06-03T09:17:57.743Z,149408.67
2018-06-03T09:20:28.716Z,149336.23
2018-06-03T09:23:00.761Z,149357.48
2018-06-03T09:25:33.208Z,149332.50
2018-06-03T09:28:03.926Z,149248.84
2018-06-03T09:30:35.448Z,149178.94
2018-06-03T09:33:07.513Z,149082.81
2018-06-03T09:35:39.055Z,149168.97
2018-06-03T09:38:11.846Z,149193.91
2018-06-03T09:40:43.511Z,149293.80
2018-06-03T09:43:14.647Z,149235.09
2018-06-03T09:45:45.697Z,149181.44
2018-06-03T09:48:17.974Z,149310.05
2018-06-03T09:50:49.042Z,149363.72
2018-06-03T09:53:20.442Z,149434.88
2018-06-03T09:55:51.584Z,149488.61
2018-06-03T10:00:59.528Z,149496.16
2018-06-03T10:03:31.238Z,149401.19
2018-06-03T10:06:03.206Z,149343.77
2018-06-03T10:08:34.351Z,149261.33
2018-06-03T10:11:06.392Z,149321.28
2018-06-03T10:13:37.414Z,149203.92
2018-06-03T10:16:09.681Z,149248.84
2018-06-03T10:18:41.497Z,149310.05
2018-06-03T10:21:13.799Z,149336.23
2018-06-03T10:23:44.958Z,149318.78
2018-06-03T10:26:16.532Z,149318.78
2018-06-03T10:28:47.504Z,149338.73
2018-06-03T10:31:28.253Z,149296.28
2018-06-03T10:33:59.176Z,149343.77
2018-06-03T10:36:33.128Z,149423.66
2018-06-03T10:39:04.126Z,149429.88
2018-06-03T10:41:36.108Z,149330.00
2018-06-03T10:44:08.221Z,149293.80
2018-06-03T10:46:39.310Z,149347.52
2018-06-03T10:49:10.210Z,149358.73
2018-06-03T10:54:17.929Z,149345.02
2018-06-03T10:59:25.832Z,149343.77
2018-06-03T11:01:56.973Z,149306.27
2018-06-03T11:04:30.096Z,149350.00
2018-06-03T11:07:02.119Z,149293.80
2018-06-03T11:09:33.242Z,149333.75
2018-06-03T11:12:04.554Z,149338.73
2018-06-03T11:14:36.896Z,149316.28
2018-06-03T11:17:08.727Z,149331.25
2018-06-03T11:19:42.387Z,149358.73
2018-06-03T11:22:13.261Z,149396.20
2018-06-03T11:24:45.341Z,149443.66
2018-06-03T11:27:16.635Z,149454.88
2018-06-03T11:29:48.590Z,149449.89
2018-06-03T11:32:20.367Z,149461.13
2018-06-03T11:34:52.725Z,149491.11
2018-06-03T11:37:24.745Z,149484.87
2018-06-03T11:40:07.680Z,149473.59
2018-06-03T11:42:39.498Z,149426.14
2018-06-03T11:45:11.439Z,149416.16
2018-06-03T11:47:43.592Z,149404.94
2018-06-03T11:50:28.778Z,149424.89
2018-06-03T11:53:00.256Z,149417.41
2018-06-03T11:55:31.503Z,149377.44
2018-06-03T11:59:10.746Z,149406.19
2018-06-03T12:04:18.940Z,149369.97
2018-06-03T12:06:52.719Z,149431.13
2018-06-03T12:09:28.866Z,149391.22
2018-06-03T12:12:18.217Z,149388.72
2018-06-03T12:14:55.072Z,149434.88
2018-06-03T12:17:28.695Z,149421.16
2018-06-03T12:20:01.923Z,149377.44
2018-06-03T12:22:33.900Z,149384.94
2018-06-03T12:25:05.486Z,149388.72
2018-06-03T12:27:40.010Z,149391.22
2018-06-03T12:30:13.408Z,149263.81
2018-06-03T12:32:55.574Z,149136.52
2018-06-03T12:35:32.041Z,149049.12
2018-06-03T12:38:22.054Z,149085.31
2018-06-03T12:40:57.712Z,149147.73
2018-06-03T12:43:30.221Z,149206.41
2018-06-03T12:46:02.109Z,149241.33
2018-06-03T12:48:35.576Z,149266.31
2018-06-03T12:51:10.016Z,149220.13
2018-06-03T12:53:42.398Z,149212.66
2018-06-03T12:56:13.945Z,149263.81
2018-06-03T12:58:47.197Z,149273.80
2018-06-03T13:01:19.936Z,149223.87
2018-06-03T13:03:51.244Z,149246.36
2018-06-03T13:06:22.263Z,149286.25
2018-06-03T13:08:54.706Z,149172.70
2018-06-03T13:11:29.061Z,149225.12
2018-06-03T13:14:00.601Z,149265.06
2018-06-03T13:16:36.279Z,149237.59
2018-06-03T13:19:10.293Z,149248.84
2018-06-03T13:21:45.074Z,149281.28
2018-06-03T13:24:20.004Z,149298.78
2018-06-03T13:26:51.990Z,149361.23
2018-06-03T13:29:24.000Z,149386.17
2018-06-03T13:31:57.917Z,149401.19
2018-06-03T13:34:32.682Z,149397.45
2018-06-03T13:37:06.384Z,149401.19
2018-06-03T13:39:38.154Z,149393.70
2018-06-03T13:42:09.000Z,149364.97
2018-06-03T13:44:41.585Z,149303.77
2018-06-03T13:47:12.514Z,149175.20
2018-06-03T13:49:44.315Z,149183.94
2018-06-03T13:52:15.770Z,149054.11
2018-06-03T13:54:49.608Z,149055.36
2018-06-03T13:57:21.714Z,149074.09
2018-06-03T13:59:55.958Z,149124.05
2018-06-03T14:02:27.394Z,149135.27
2018-06-03T14:04:59.197Z,149144.00
2018-06-03T14:07:30.137Z,149166.47
2018-06-03T14:10:01.834Z,149168.97
2018-06-03T14:12:33.671Z,149114.03
2018-06-03T14:15:05.568Z,149041.66
2018-06-03T14:17:37.005Z,149047.89
2018-06-03T14:20:09.382Z,149024.20
2018-06-03T14:22:40.163Z,149011.75
2018-06-03T14:25:12.248Z,148985.53
2018-06-03T14:27:43.450Z,148994.25
2018-06-03T14:30:14.905Z,148975.56
2018-06-03T14:32:45.673Z,148961.86
2018-06-03T14:35:19.153Z,148915.67
2018-06-03T14:37:50.068Z,148908.16
2018-06-03T14:40:22.836Z,148900.67
2018-06-03T14:42:53.594Z,148884.48
2018-06-03T14:45:25.252Z,148850.81
2018-06-03T14:47:56.790Z,148824.66
2018-06-03T14:50:28.302Z,148776.05
2018-06-03T14:52:59.172Z,148763.55
2018-06-03T14:55:29.900Z,148771.02
2018-06-03T14:58:00.926Z,148790.98
2018-06-03T15:03:08.232Z,148835.86
2018-06-03T15:05:38.914Z,148896.94
2018-06-03T15:08:15.828Z,148959.31
2018-06-03T15:10:47.221Z,148980.55
2018-06-03T15:13:18.124Z,148954.34
2018-06-03T15:15:48.989Z,148960.56
2018-06-03T15:18:19.997Z,148971.83
2018-06-03T15:20:50.879Z,148968.09
2018-06-03T15:25:58.456Z,148998.00
2018-06-03T15:28:29.246Z,148996.75
2018-06-03T15:31:00.162Z,149002.97
2018-06-03T15:33:30.930Z,149006.72
2018-06-03T15:36:04.303Z,149016.73
2018-06-03T15:38:35.937Z,149010.50
2018-06-03T15:41:07.192Z,149010.50
2018-06-03T15:43:38.147Z,148994.25
2018-06-03T15:46:09.344Z,148964.36
2018-06-03T15:48:39.838Z,148934.41
2018-06-03T15:53:46.259Z,148914.42
2018-06-03T15:56:16.868Z,148911.89
2018-06-03T15:58:48.567Z,148906.91
2018-06-03T16:01:19.349Z,148899.44
2018-06-03T16:06:28.332Z,148853.30
2018-06-03T16:09:01.174Z,148884.48
2018-06-03T16:11:32.922Z,148885.73
2018-06-03T16:14:04.955Z,148872.03
2018-06-03T16:16:35.682Z,148886.97
2018-06-03T16:19:08.729Z,148928.19
2018-06-03T16:21:39.902Z,148976.81
2018-06-03T16:24:11.579Z,148981.80
2018-06-03T16:26:42.663Z,148959.31
2018-06-03T16:29:13.849Z,148970.58
2018-06-03T16:31:46.359Z,148974.31
2018-06-03T16:34:19.371Z,148959.31
2018-06-03T16:36:51.539Z,148955.59
2018-06-03T16:39:22.372Z,148939.39
2018-06-03T16:41:53.967Z,148935.66
2018-06-03T16:44:26.082Z,148919.41
2018-06-03T16:46:57.506Z,148864.50
2018-06-03T16:49:29.055Z,148819.67
2018-06-03T16:52:00.251Z,148819.67
2018-06-03T16:54:37.475Z,148822.16
2018-06-03T16:57:08.292Z,148802.19
2018-06-03T17:02:18.826Z,148767.28
2018-06-03T17:04:49.851Z,148758.56
2018-06-03T17:07:20.906Z,148746.11
2018-06-03T17:09:53.113Z,148751.09
2018-06-03T17:15:00.582Z,148721.16
2018-06-03T17:17:32.429Z,148708.66
2018-06-03T17:20:03.219Z,148722.41
2018-06-03T17:22:37.671Z,148702.44
2018-06-03T17:25:08.482Z,148680.03
2018-06-03T17:30:15.122Z,148692.48
2018-06-03T17:32:46.335Z,148697.47
2018-06-03T17:35:17.182Z,148685.00
2018-06-03T17:37:48.068Z,148687.50
2018-06-03T17:42:55.216Z,148697.47
2018-06-03T17:45:26.179Z,148698.70
2018-06-03T17:47:58.053Z,148703.69
2018-06-03T17:50:29.096Z,148704.92
2018-06-03T17:53:00.001Z,148706.17
2018-06-03T17:55:30.781Z,148713.64
2018-06-03T17:58:02.701Z,148727.44
2018-06-03T18:00:33.534Z,148739.88
2018-06-03T18:05:42.812Z,148681.28
2018-06-03T18:08:14.815Z,148733.66
2018-06-03T18:10:45.893Z,148746.11
2018-06-03T18:13:16.471Z,148743.63
2018-06-03T18:15:47.139Z,148739.88
2018-06-03T18:18:18.053Z,148719.92
2018-06-03T18:20:51.567Z,148719.92
2018-06-03T18:23:22.486Z,148708.66
2018-06-03T18:25:54.161Z,148699.95
2018-06-03T18:28:25.096Z,148706.17
2018-06-03T18:30:58.430Z,148717.42
2018-06-03T18:33:29.257Z,148734.91
2018-06-03T18:36:00.248Z,148726.19
2018-06-03T18:38:31.297Z,148709.91
2018-06-03T18:41:02.304Z,148719.92
2018-06-03T18:43:33.061Z,148702.44
2018-06-03T18:46:04.768Z,148692.48
2018-06-03T18:48:35.717Z,148686.25
2018-06-03T18:51:08.769Z,148692.48
2018-06-03T18:53:39.709Z,148688.75
2018-06-03T18:56:11.522Z,148680.03
2018-06-03T18:58:42.212Z,148672.52
2018-06-03T19:01:18.395Z,148661.31
2018-06-03T19:03:49.234Z,148655.09
2018-06-03T19:06:20.588Z,148656.33
2018-06-03T19:08:51.702Z,148671.27
2018-06-03T19:11:23.089Z,148677.50
2018-06-03T19:13:54.380Z,148697.47
2018-06-03T19:16:25.500Z,148706.17
2018-06-03T19:18:57.752Z,148722.41
2018-06-03T19:21:28.657Z,148728.69
2018-06-03T19:23:59.581Z,148739.88
2018-06-03T19:26:31.582Z,148721.16
2018-06-03T19:29:09.340Z,148738.64
2018-06-03T19:31:44.246Z,148739.88
2018-06-03T19:34:15.655Z,148718.67
2018-06-03T19:36:50.139Z,148722.41
2018-06-03T19:39:21.166Z,148722.41
2018-06-03T19:41:53.044Z,148696.22
2018-06-03T19:44:23.886Z,148722.41
2018-06-03T19:46:57.760Z,148734.91
2018-06-03T19:49:28.567Z,148747.36
2018-06-03T19:51:59.452Z,148736.16
2018-06-03T19:54:30.517Z,148714.89
2018-06-03T19:57:01.554Z,148718.67
2018-06-03T19:59:32.501Z,148718.67
2018-06-03T20:02:03.756Z,148719.92
2018-06-03T20:04:34.865Z,148724.91
2018-06-03T20:07:06.078Z,148702.44
2018-06-03T20:09:37.101Z,148671.27
2018-06-03T20:12:08.252Z,148663.80
2018-06-03T20:14:42.427Z,148655.09
2018-06-03T20:17:14.590Z,148668.78
2018-06-03T20:19:45.644Z,148678.78
2018-06-03T20:22:17.857Z,148681.28
2018-06-03T20:24:48.930Z,148677.50
2018-06-03T20:27:21.610Z,148680.03
2018-06-03T20:29:52.475Z,148675.00
2018-06-03T20:32:23.574Z,148672.52
2018-06-03T20:34:54.577Z,148663.80
2018-06-03T20:37:25.565Z,148647.63
2018-06-03T20:39:56.993Z,148632.69
2018-06-03T20:42:31.328Z,148613.97
2018-06-03T20:45:02.627Z,148617.69
2018-06-03T20:47:35.495Z,148613.97
2018-06-03T20:50:07.070Z,148622.67
2018-06-03T20:55:13.753Z,148621.44
2018-06-03T20:57:45.797Z,148640.16
2018-06-03T21:00:16.576Z,148617.69
2018-06-03T21:02:47.562Z,148584.09
2018-06-03T21:05:18.884Z,148582.81
2018-06-03T21:07:49.989Z,148599.03
2018-06-03T21:24:32.529Z,148642.64
2018-06-03T21:27:03.509Z,148582.81
2018-06-03T21:29:34.607Z,148560.41
2018-06-03T21:32:05.815Z,148546.72
2018-06-03T21:34:36.965Z,148505.61
2018-06-03T21:37:07.993Z,148466.94
2018-06-03T21:39:38.873Z,148486.84
2018-06-03T21:42:09.776Z,148516.81
2018-06-03T21:44:41.962Z,148534.22
2018-06-03T21:47:12.930Z,148532.98
2018-06-03T21:49:43.934Z,148504.36
2018-06-03T21:52:14.904Z,148523.03
2018-06-03T21:54:46.069Z,148536.77
2018-06-03T21:57:16.912Z,148552.94
2018-06-03T21:59:48.724Z,148549.20
2018-06-03T22:02:19.753Z,148545.47
2018-06-03T22:04:50.832Z,148544.22
2018-06-03T22:07:21.503Z,148547.97
2018-06-03T22:09:53.285Z,148570.36
2018-06-03T22:12:24.087Z,148604.00
2018-06-03T22:14:58.081Z,148635.17
2018-06-03T22:17:29.758Z,148605.25
2018-06-03T22:20:01.482Z,148579.06
2018-06-03T22:22:32.403Z,148542.98
2018-06-03T22:25:04.876Z,148518.05
2018-06-03T22:27:35.772Z,148504.36
2018-06-03T22:30:07.480Z,148496.84
2018-06-03T22:32:38.595Z,148530.50
2018-06-03T22:35:09.787Z,148528.00
2018-06-03T22:37:40.676Z,148505.61
2018-06-03T22:40:12.342Z,148504.36
2018-06-03T22:42:43.146Z,148525.52
2018-06-03T22:45:14.924Z,148528.00
2018-06-03T22:47:45.785Z,148531.73
2018-06-03T22:50:18.486Z,148521.78
2018-06-03T22:52:49.489Z,148532.98
2018-06-03T22:55:20.353Z,148538.00
2018-06-03T22:57:52.838Z,148542.98
2018-06-03T23:00:28.136Z,148525.52
2018-06-03T23:03:04.059Z,148528.00
2018-06-03T23:05:37.631Z,148520.53
2018-06-03T23:08:08.667Z,148513.06
2018-06-03T23:10:39.614Z,148521.78
2018-06-03T23:13:10.535Z,148529.25
2018-06-03T23:15:42.178Z,148531.73
2018-06-03T23:18:13.238Z,148532.98
2018-06-03T23:20:45.893Z,148520.53
2018-06-03T23:23:16.749Z,148509.34
2018-06-03T23:25:47.784Z,148513.06
2018-06-03T23:28:18.497Z,148519.30
2018-06-03T23:30:51.195Z,148520.53
2018-06-03T23:33:22.150Z,148503.06
2018-06-03T23:35:53.788Z,148498.09
2018-06-03T23:38:25.413Z,148500.58
2018-06-03T23:40:59.087Z,148501.83
2018-06-03T23:43:30.027Z,148495.61
2018-06-03T23:46:01.203Z,148489.38
2018-06-03T23:48:32.250Z,148480.62
2018-06-03T23:53:39.392Z,148479.38
2018-06-03T23:56:10.426Z,148478.14
2018-06-03T23:58:41.167Z,148456.98
